Data for 08/02/2014

Time Sea-Level Adjusted Pressure Absolute Pressure Temperature Relative Humidity Dew Point   
(mb) (inHg) (mb) (inHg) (C) (F) (%) (C) (F)
00:05 1024 30.24 853 25.19 17.1 62.8 43 4.6 40.4
00:10 1024 30.24 853 25.19 17 62.6 43 4.4 40
00:15 1024 30.24 853 25.19 17 62.5 44 4.7 40.5
00:20 1024 30.24 853 25.19 16.8 62.2 45 4.8 40.7
00:25 1024 30.24 853 25.19 16.6 61.8 45 4.8 40.7
00:30 1024 30.24 853 25.19 16.5 61.6 49 5.7 42.3
00:35 1024 30.24 853 25.19 16.3 61.3 47 4.9 40.9
00:40 1024 30.24 853 25.19 16 60.8 48 5.1 41.1
00:45 1024 30.24 853 25.19 15.8 60.5 48 5 41
00:50 1024 30.24 853 25.19 15.9 60.7 47 4.8 40.7
00:55 1024 30.24 853 25.19 15.9 60.7 47 4.8 40.7
01:00 1024 30.24 853 25.19 16.1 60.9 47 4.7 40.5
01:05 1024 30.24 853 25.19 16.4 61.5 46 4.9 40.8
01:10 1024 30.24 853 25.19 16.5 61.6 46 5 41
01:15 1024 30.24 853 25.19 16.4 61.6 46 4.9 40.9
01:20 1024 30.24 853 25.19 16.5 61.7 46 5.1 41.2
01:25 1024 30.24 853 25.19 16.4 61.6 46 4.9 40.8
01:30 1024 30.24 853 25.19 16.5 61.7 46 5.1 41.1
01:35 1024 30.24 853 25.19 16.5 61.6 50 6.1 43
01:40 1024 30.24 853 25.19 16.7 62.1 45 5 40.9
01:45 1024 30.24 853 25.19 17 62.7 46 5.4 41.7
01:50 1024 30.24 853 25.19 17 62.7 46 5.6 42
01:55 1024 30.24 853 25.19 16.7 62 47 5.4 41.7
02:00 1024 30.24 853 25.19 16.7 62.1 46 5.3 41.5
02:05 1024 30.24 853 25.19 16.9 62.3 47 5.4 41.8
02:10 1024 30.24 853 25.19 16.9 62.4 48 5.9 42.6
02:15 1024 30.24 853 25.19 16.8 62.2 48 5.7 42.3
02:20 1024 30.24 853 25.19 16.4 61.5 48 5.4 41.6
02:25 1024 30.24 853 25.19 16.4 61.4 46 4.9 40.8
02:30 1024 30.24 853 25.19 16.4 61.5 47 5.1 41.1
02:35 1024 30.24 853 25.19 16.4 61.4 46 4.9 40.8
02:40 1024 30.24 853 25.19 16.4 61.5 48 5.3 41.6
02:45 1024 30.24 853 25.19 16.4 61.5 47 5.2 41.4
02:50 1024 30.24 853 25.19 16.4 61.6 46 4.9 40.8
02:55 1024 30.24 853 25.19 16.1 60.9 47 4.8 40.6
03:00 1024 30.24 853 25.19 16.1 60.9 45 4.2 39.5
03:05 1024 30.24 853 25.19 16.1 61.1 46 4.6 40.2
03:10 1024 30.24 853 25.19 15.8 60.5 48 4.9 40.8
03:15 1024 30.24 853 25.19 15.5 59.8 48 4.5 40.1
03:20 1024 30.24 853 25.19 16 60.7 48 5 40.9
03:25 1024 30.24 853 25.19 16.5 61.6 47 5.2 41.3
03:30 1024 30.24 853 25.19 16.4 61.6 48 5.5 41.9
03:35 1024 30.24 853 25.19 16.2 61.1 49 5.6 42.2
03:40 1024 30.24 853 25.19 15.9 60.6 50 5.7 42.3
03:45 1024 30.24 853 25.19 15.8 60.4 51 5.8 42.4
03:50 1024 30.24 853 25.19 15.4 59.7 52 5.6 42.1
03:55 1024 30.24 853 25.19 14.9 58.8 54 5.7 42.2
04:00 1024 30.24 853 25.19 14.5 58.1 55 5.6 42
04:05 1024 30.24 853 25.19 14.4 58 54 5.3 41.6
04:10 1024 30.24 853 25.19 14.6 58.3 54 5.5 42
04:15 1024 30.24 853 25.19 14.8 58.7 54 5.7 42.3
04:20 1024 30.24 853 25.19 14.8 58.7 54 5.8 42.4
04:25 1024 30.24 853 25.19 14.5 58.1 55 5.7 42.3
04:30 1024 30.24 853 25.19 14.5 58.1 55 5.6 42.1
04:35 1024 30.24 853 25.19 14.7 58.4 56 5.9 42.7
04:40 1024 30.24 853 25.19 14.3 57.7 56 5.6 42.1
04:45 1024 30.24 853 25.19 14.4 57.9 55 5.7 42.2
04:50 1024 30.24 853 25.19 14.6 58.3 55 5.8 42.4
04:55 1024 30.24 853 25.19 14.7 58.5 54 5.7 42.2
05:00 1024 30.24 853 25.19 15.1 59.2 53 5.6 42.1
05:05 1024 30.24 853 25.19 15.6 60 53 6 42.9
05:10 1024 30.24 853 25.19 15.2 59.4 55 6.2 43.2
05:15 1024 30.24 853 25.19 14.7 58.5 57 6.3 43.3
05:20 1024 30.24 853 25.19 14.6 58.3 56 6.1 43
05:25 1024 30.24 853 25.19 14.6 58.2 56 6 42.8
05:30 1024 30.24 853 25.19 14.4 58 57 6 42.9
05:35 1024 30.24 853 25.19 14.5 58.1 56 5.8 42.5
05:40 1024 30.24 853 25.19 14.4 57.9 56 5.9 42.6
05:45 1024 30.24 853 25.19 14.3 57.7 56 5.7 42.3
05:50 1024 30.24 853 25.19 14.5 58 55 5.7 42.2
05:55 1024 30.24 853 25.19 14.7 58.5 55 5.9 42.6
06:00 1024 30.24 853 25.19 14.7 58.5 54 5.6 42.2
06:05 1024 30.24 853 25.19 14.7 58.5 54 5.6 42.2
06:10 1024 30.24 853 25.19 14.5 58.1 56 6 42.8
06:15 1024 30.24 854 25.22 14.6 58.2 55 5.6 42.2
06:20 1024 30.24 854 25.22 14.9 58.8 54 5.7 42.3
06:25 1024 30.24 854 25.22 15.3 59.5 52 5.4 41.8
06:30 1024 30.24 854 25.22 15.4 59.8 51 5.4 41.7
06:35 1024 30.24 854 25.22 15.9 60.6 51 5.8 42.5
06:40 1024 30.24 854 25.22 16.3 61.3 50 6.1 42.9
06:45 1024 30.24 854 25.22 16.5 61.7 50 6.2 43.2
06:50 1024 30.24 854 25.22 17 62.5 49 6.2 43.2
06:55 1025 30.27 854 25.22 17.3 63.1 49 6.7 44
07:00 1025 30.27 854 25.22 17.1 62.8 48 6.2 43.2
07:05 1025 30.27 854 25.22 17.2 62.9 48 6.3 43.4
07:10 1025 30.27 854 25.22 17.1 62.7 48 6.1 43
07:15 1025 30.27 854 25.22 17.7 63.9 45 5.7 42.2
07:20 1025 30.27 854 25.22 18.1 64.6 42 5.2 41.3
07:25 1025 30.27 854 25.22 18.6 65.4 41 5.3 41.5
07:30 1025 30.27 854 25.22 19 66.2 39 4.8 40.7
07:35 1025 30.27 854 25.22 19.6 67.3 39 5.2 41.4
07:40 1025 30.27 854 25.22 19.6 67.2 40 5.9 42.7
07:45 1025 30.27 854 25.22 20.2 68.4 37 5.4 41.7
07:50 1025 30.27 854 25.22 20.6 69 38 5.9 42.6
07:55 1025 30.27 854 25.22 20.9 69.5 37 5.8 42.5
08:00 1025 30.27 854 25.22 21.1 69.9 38 6.4 43.5
08:05 1025 30.27 854 25.22 20.6 69 39 6.3 43.4
08:10 1025 30.27 854 25.22 20.9 69.6 38 6.1 43.1
08:15 1025 30.27 854 25.22 21.3 70.3 38 6.5 43.7
08:20 1025 30.27 854 25.22 21.4 70.6 37 6.4 43.5
08:25 1025 30.27 854 25.22 21.4 70.5 38 6.8 44.3
08:30 1025 30.27 854 25.22 21.1 70 38 6.5 43.8
08:35 1025 30.27 854 25.22 21 69.8 37 6.1 43
08:40 1025 30.27 854 25.22 21.4 70.6 38 6.7 44.1
08:45 1025 30.27 854 25.22 21.8 71.3 36 6.3 43.4
08:50 1025 30.27 854 25.22 22.2 72 36 6.5 43.8
08:55 1025 30.27 854 25.22 22.6 72.7 34 6.2 43.2
09:00 1025 30.27 854 25.22 22.7 72.9 35 6.8 44.2
09:05 1025 30.27 854 25.22 22.8 73 34 6.3 43.3
09:10 1025 30.27 854 25.22 22.8 73.1 33 6.1 43
09:15 1025 30.27 854 25.22 23.1 73.5 34 6.4 43.4
09:20 1025 30.27 854 25.22 23.9 74.9 32 6.3 43.3
09:25 1025 30.27 854 25.22 24.3 75.8 31 6.4 43.5
09:30 1025 30.27 854 25.22 23.9 75 32 6.3 43.4
09:35 1025 30.27 854 25.22 24.3 75.8 31 6.2 43.2
09:40 1025 30.27 854 25.22 24.2 75.6 32 6.6 43.8
09:45 1024 30.24 854 25.22 24.1 75.3 31 6.2 43.1
09:50 1024 30.24 854 25.22 23.7 74.7 34 7.3 45.2
09:55 1024 30.24 854 25.22 24.2 75.5 32 6.5 43.7
10:00 1024 30.24 854 25.22 24.5 76 32 6.8 44.2
10:05 1024 30.24 854 25.22 23.9 75 31 6.1 43
10:10 1024 30.24 854 25.22 24.5 76 31 6.4 43.6
10:15 1024 30.24 853 25.19 24 75.2 31 6.2 43.1
10:20 1024 30.24 853 25.19 24.5 76.2 30 6 42.7
10:25 1024 30.24 853 25.19 25.6 78.1 29 6.5 43.7
10:30 1024 30.24 853 25.19 25.4 77.7 29 6.2 43.2
10:35 1024 30.24 853 25.19 25.3 77.5 30 6.8 44.2
10:40 1024 30.24 853 25.19 24.9 76.8 29 5.7 42.3
10:45 1024 30.24 853 25.19 25.2 77.4 28 5.6 42
10:50 1024 30.24 853 25.19 25.7 78.3 28 5.9 42.6
10:55 1024 30.24 853 25.19 26.6 79.8 27 6.1 43
11:00 1024 30.24 853 25.19 26.9 80.5 26 6.1 43
11:05 1024 30.24 853 25.19 26 78.8 27 5.9 42.6
11:10 1024 30.24 853 25.19 26.3 79.3 26 5.6 42.1
11:15 1024 30.24 853 25.19 26.6 79.9 25 5.4 41.6
11:20 1024 30.24 853 25.19 27 80.6 24 5.2 41.3
11:25 1024 30.24 853 25.19 27.2 81 24 5.1 41.1
11:30 1024 30.24 853 25.19 27.2 80.9 25 5.7 42.3
11:35 1024 30.24 853 25.19 27.5 81.6 23 5 41.1
11:40 1024 30.24 853 25.19 27.4 81.3 23 4.9 40.8
11:45 1024 30.24 853 25.19 27.6 81.7 23 5.2 41.4
11:50 1024 30.24 853 25.19 28.1 82.6 23 5.5 41.9
11:55 1024 30.24 853 25.19 26.4 79.5 27 6.3 43.4
12:00 1024 30.24 853 25.19 26.8 80.3 25 5.5 41.9
12:05 1024 30.24 853 25.19 26.9 80.5 25 5.4 41.7
12:10 1024 30.24 853 25.19 27 80.5 24 5.1 41.1
12:15 1024 30.24 853 25.19 28.1 82.6 22 4.8 40.6
12:20 1024 30.24 853 25.19 27.9 82.3 23 5.3 41.5
12:25 1024 30.24 853 25.19 27.5 81.5 23 4.7 40.4
12:30 1023 30.21 853 25.19 27.2 80.9 23 4.3 39.7
12:35 1023 30.21 853 25.19 28.1 82.5 21 4 39.2
12:40 1023 30.21 853 25.19 28.5 83.4 21 4.5 40.1
12:45 1023 30.21 853 25.19 29.2 84.6 21 4.8 40.6
12:50 1023 30.21 853 25.19 29.4 85 21 5 41
12:55 1023 30.21 852 25.16 28.9 84.1 22 5.7 42.3
13:00 1023 30.21 852 25.16 27.7 81.8 24 5.8 42.4
13:05 1023 30.21 852 25.16 28.4 83.1 22 5.3 41.5
13:10 1023 30.21 852 25.16 28.9 84 22 5.6 42.1
13:15 1023 30.21 852 25.16 29.2 84.6 22 5.4 41.7
13:20 1023 30.21 852 25.16 29 84.1 23 5.8 42.4
13:25 1023 30.21 852 25.16 28.9 84 23 5.9 42.7
13:30 1023 30.21 852 25.16 28.5 83.3 24 6 42.9
13:35 1023 30.21 852 25.16 29.2 84.5 22 5.3 41.6
13:40 1023 30.21 852 25.16 29.1 84.4 22 5.5 41.8
13:45 1023 30.21 852 25.16 29.2 84.5 22 5.3 41.5
13:50 1023 30.21 852 25.16 29.2 84.5 22 5.3 41.6
13:55 1023 30.21 852 25.16 29.5 85.1 21 5.1 41.1
14:00 1023 30.21 852 25.16 29.5 85 21 5.2 41.3
14:05 1023 30.21 852 25.16 29.3 84.8 21 5.4 41.7
14:10 1023 30.21 852 25.16 29.3 84.8 21 5.1 41.2
14:15 1023 30.21 852 25.16 29.8 85.7 20 4.6 40.3
14:20 1022 30.18 852 25.16 30 86 19 4.5 40.1
14:25 1022 30.18 852 25.16 29.4 84.9 21 5.1 41.2
14:30 1022 30.18 852 25.16 29.7 85.4 18 3.2 37.7
14:35 1022 30.18 852 25.16 30 85.9 19 3.9 39
14:40 1022 30.18 852 25.16 29.5 85.1 20 4.5 40.1
14:45 1022 30.18 852 25.16 28.8 83.8 20 4 39.1
14:50 1022 30.18 852 25.16 28.8 83.8 19 3.3 38
14:55 1022 30.18 852 25.16 28.3 83 19 3 37.5
15:00 1022 30.18 852 25.16 28.2 82.7 19 2.8 37.1
15:05 1022 30.18 851 25.13 27.9 82.3 20 3 37.4
15:10 1022 30.18 851 25.13 28.2 82.7 20 3.1 37.7
15:15 1022 30.18 851 25.13 28.4 83.1 18 2.5 36.4
15:20 1022 30.18 851 25.13 28.1 82.5 20 3.2 37.7
15:25 1022 30.18 851 25.13 28.2 82.8 21 3.8 38.8
15:30 1022 30.18 852 25.16 28.1 82.7 20 3.2 37.7
15:35 1022 30.18 852 25.16 28.1 82.7 20 3.7 38.6
15:40 1022 30.18 852 25.16 28.1 82.5 21 3.9 38.9
15:45 1022 30.18 852 25.16 27.8 82.1 21 3.9 39
15:50 1022 30.18 852 25.16 27.9 82.2 21 4 39.3
15:55 1022 30.18 852 25.16 27.4 81.3 29 8 46.3
16:00 1022 30.18 852 25.16 25.4 77.7 27 5.3 41.5
16:05 1022 30.18 852 25.16 25.1 77.1 30 6.7 44.1
16:10 1022 30.18 852 25.16 24.2 75.5 31 6.4 43.5
16:15 1022 30.18 851 25.13 24.2 75.6 28 4.8 40.7
16:20 1022 30.18 851 25.13 24.5 76 30 6 42.9
16:25 1022 30.18 852 25.16 24.5 76.1 31 6.5 43.7
16:30 1022 30.18 852 25.16 24.5 76.1 28 5 41.1
16:35 1022 30.18 852 25.16 24.6 76.4 27 4.6 40.2
16:40 1022 30.18 852 25.16 24.8 76.7 27 5 41
16:45 1022 30.18 852 25.16 25 77 29 5.9 42.6
16:50 1022 30.18 852 25.16 25.1 77.1 30 6.4 43.4
16:55 1022 30.18 852 25.16 24.8 76.6 30 6.2 43.2
17:00 1022 30.18 852 25.16 24.7 76.4 29 5.9 42.6
17:05 1022 30.18 852 25.16 24.6 76.2 31 6.6 43.9
17:10 1022 30.18 852 25.16 24.5 76.2 31 6.6 43.9
17:15 1023 30.21 852 25.16 24.4 76 32 6.9 44.3
17:20 1023 30.21 852 25.16 24.1 75.4 37 8.8 47.9
17:25 1023 30.21 852 25.16 23.2 73.8 40 9 48.1
17:30 1023 30.21 853 25.19 22.5 72.5 43 9.4 49
17:35 1024 30.24 853 25.19 21.2 70.1 50 10.6 51.1
17:40 1024 30.24 853 25.19 20.3 68.6 56 11.3 52.3
17:45 1024 30.24 853 25.19 20.2 68.4 52 10.2 50.4
17:50 1024 30.24 853 25.19 20.1 68.3 55 10.9 51.7
17:55 1024 30.24 853 25.19 20 68 56 11 51.7
18:00 1023 30.21 853 25.19 19.9 67.7 54 10.3 50.5
18:05 1023 30.21 852 25.16 20.2 68.3 52 10.1 50.1
18:10 1023 30.21 852 25.16 20.4 68.8 54 10.9 51.6
18:15 1023 30.21 852 25.16 20.3 68.6 55 11 51.8
18:20 1023 30.21 852 25.16 20.3 68.5 55 11 51.9
18:25 1023 30.21 852 25.16 20.3 68.6 54 10.8 51.5
18:30 1023 30.21 852 25.16 20.2 68.4 53 10.6 51
18:35 1023 30.21 852 25.16 20.4 68.6 53 10.6 51.1
18:40 1023 30.21 852 25.16 20.4 68.8 52 10.5 50.9
18:45 1023 30.21 852 25.16 20.5 68.8 54 11 51.7
18:50 1023 30.21 852 25.16 20.4 68.7 53 10.6 51.2
18:55 1023 30.21 852 25.16 20.4 68.6 54 10.8 51.5
19:00 1023 30.21 852 25.16 20.4 68.6 54 10.8 51.4
19:05 1023 30.21 852 25.16 20.3 68.6 56 11.3 52.3
19:10 1023 30.21 852 25.16 20.1 68.2 58 11.7 53.1
19:15 1023 30.21 852 25.16 19.9 67.7 59 11.8 53.2
19:20 1023 30.21 852 25.16 19.8 67.6 54 10.3 50.5
19:25 1023 30.21 852 25.16 19.8 67.7 53 10.2 50.3
19:30 1023 30.21 852 25.16 19.7 67.4 51 9.4 48.9
19:35 1023 30.21 852 25.16 19.8 67.6 54 10.2 50.4
19:40 1023 30.21 852 25.16 19.5 67.2 54 10.2 50.4
19:45 1023 30.21 852 25.16 19.3 66.7 57 10.7 51.3
19:50 1023 30.21 852 25.16 19.1 66.4 58 10.7 51.2
19:55 1023 30.21 852 25.16 18.8 65.8 59 10.6 51.1
20:00 1023 30.21 852 25.16 18.7 65.6 60 10.7 51.3
20:05 1023 30.21 852 25.16 18.5 65.4 60 10.7 51.3
20:10 1023 30.21 852 25.16 18.4 65.1 60 10.6 51.1
20:15 1023 30.21 852 25.16 18.3 64.9 61 10.6 51.2
20:20 1023 30.21 852 25.16 18.2 64.7 61 10.6 51.1
20:25 1023 30.21 852 25.16 18.1 64.6 60 10.3 50.5
20:30 1023 30.21 852 25.16 18.1 64.6 61 10.5 50.9
20:35 1023 30.21 852 25.16 18.1 64.6 66 11.6 52.9
20:40 1023 30.21 852 25.16 18.1 64.5 67 11.9 53.4
20:45 1023 30.21 852 25.16 17.8 64 65 11.3 52.3
20:50 1023 30.21 852 25.16 17.5 63.6 67 11.4 52.6
20:55 1023 30.21 852 25.16 16.9 62.3 70 11.4 52.5
21:00 1023 30.21 852 25.16 16.5 61.6 68 10.7 51.2
21:05 1023 30.21 852 25.16 16.8 62.2 62 9.6 49.2
21:10 1023 30.21 852 25.16 17.1 62.9 60 9.4 48.9
21:15 1023 30.21 852 25.16 17.5 63.5 56 8.7 47.7
21:20 1023 30.21 852 25.16 17.7 63.8 57 9.2 48.6
21:25 1023 30.21 852 25.16 17.2 63 59 9.2 48.5
21:30 1023 30.21 852 25.16 16.9 62.3 60 9.2 48.6
21:35 1023 30.21 852 25.16 16.6 61.8 61 9 48.2
21:40 1023 30.21 852 25.16 16.7 62 59 8.7 47.6
21:45 1023 30.21 852 25.16 16.9 62.4 58 8.7 47.6
21:50 1023 30.21 852 25.16 17.1 62.8 58 8.8 47.8
21:55 1023 30.21 852 25.16 17.1 62.7 58 8.8 47.8
22:00 1023 30.21 852 25.16 17 62.6 57 8.6 47.5
22:05 1023 30.21 852 25.16 17 62.5 55 7.9 46.1
22:10 1023 30.21 852 25.16 17.7 63.8 53 8 46.4
22:15 1023 30.21 852 25.16 17.6 63.7 53 8 46.4
22:20 1023 30.21 852 25.16 17.5 63.6 53 7.9 46.2
22:25 1023 30.21 852 25.16 17.5 63.5 53 8 46.3
22:30 1023 30.21 852 25.16 17.4 63.3 55 8.4 47.2
22:35 1023 30.21 852 25.16 17 62.7 56 8.3 47
22:40 1023 30.21 852 25.16 16.6 61.9 57 8.3 46.9
22:45 1023 30.21 852 25.16 16.2 61.2 58 8.2 46.7
22:50 1023 30.21 852 25.16 16 60.8 59 8 46.4
22:55 1023 30.21 852 25.16 16.1 61 58 8 46.4
23:00 1023 30.21 852 25.16 16.1 61 59 8.1 46.6
23:05 1023 30.21 852 25.16 16.2 61.2 59 8.3 47
23:10 1023 30.21 852 25.16 16.5 61.6 57 8 46.4
23:15 1023 30.21 852 25.16 16.4 61.6 56 7.7 45.9
23:20 1023 30.21 852 25.16 16.4 61.6 56 7.8 46
23:25 1023 30.21 852 25.16 16.6 61.9 53 7.2 44.9
23:30 1023 30.21 852 25.16 17 62.5 52 7.2 45
23:35 1023 30.21 852 25.16 17.2 62.9 53 7.5 45.5
23:40 1023 30.21 852 25.16 16.9 62.4 57 8.3 47
23:45 1023 30.21 852 25.16 16.2 61.2 58 7.9 46.3
23:50 1023 30.21 852 25.16 16.2 61.2 56 7.6 45.6
23:55 1023 30.21 852 25.16 16.3 61.4 59 8.4 47.2
24:00 1023 30.21 852 25.16 16.2 61.1 58 8.1 46.5